sensor_id;sensor_type;location;lat;lon;timestamp;P1;durP1;ratioP1;P2;durP2;ratioP2
48809;SDS011;40070;47.322;18.784;2023-08-31T00:00:11;4.28;;;1.73;;
48809;SDS011;40070;47.322;18.784;2023-08-31T00:02:08;4.46;;;2.12;;
48809;SDS011;40070;47.322;18.784;2023-08-31T00:04:09;4.19;;;1.93;;
48809;SDS011;40070;47.322;18.784;2023-08-31T00:06:14;3.05;;;1.54;;
48809;SDS011;40070;47.322;18.784;2023-08-31T00:08:15;4.47;;;1.83;;
48809;SDS011;40070;47.322;18.784;2023-08-31T00:10:16;2.97;;;1.73;;
48809;SDS011;40070;47.322;18.784;2023-08-31T00:12:17;3.77;;;1.93;;
48809;SDS011;40070;47.322;18.784;2023-08-31T00:14:18;3.69;;;1.84;;
48809;SDS011;40070;47.322;18.784;2023-08-31T00:16:20;3.86;;;2.03;;
48809;SDS011;40070;47.322;18.784;2023-08-31T00:18:19;6.51;;;2.13;;
48809;SDS011;40070;47.322;18.784;2023-08-31T00:20:20;3.07;;;1.74;;
48809;SDS011;40070;47.322;18.784;2023-08-31T00:22:21;4.02;;;1.93;;
48809;SDS011;40070;47.322;18.784;2023-08-31T00:24:22;4.23;;;2.03;;
48809;SDS011;40070;47.322;18.784;2023-08-31T00:26:23;3.25;;;1.83;;
48809;SDS011;40070;47.322;18.784;2023-08-31T00:28:24;3.54;;;1.84;;
48809;SDS011;40070;47.322;18.784;2023-08-31T00:30:25;3.18;;;1.74;;
48809;SDS011;40070;47.322;18.784;2023-08-31T00:32:26;3.91;;;2.04;;
48809;SDS011;40070;47.322;18.784;2023-08-31T00:34:27;3.83;;;2.14;;
48809;SDS011;40070;47.322;18.784;2023-08-31T00:36:31;4.10;;;2.04;;
48809;SDS011;40070;47.322;18.784;2023-08-31T00:38:32;3.30;;;1.75;;
48809;SDS011;40070;47.322;18.784;2023-08-31T00:40:37;3.22;;;1.65;;
48809;SDS011;40070;47.322;18.784;2023-08-31T00:42:35;3.93;;;2.24;;
48809;SDS011;40070;47.322;18.784;2023-08-31T00:44:36;4.03;;;2.04;;
48809;SDS011;40070;47.322;18.784;2023-08-31T00:46:37;3.56;;;1.84;;
48809;SDS011;40070;47.322;18.784;2023-08-31T00:48:38;3.63;;;1.94;;
48809;SDS011;40070;47.322;18.784;2023-08-31T00:50:39;3.71;;;1.84;;
48809;SDS011;40070;47.322;18.784;2023-08-31T00:52:41;3.44;;;1.84;;
48809;SDS011;40070;47.322;18.784;2023-08-31T00:54:41;4.62;;;1.94;;
48809;SDS011;40070;47.322;18.784;2023-08-31T00:56:42;3.73;;;2.04;;
48809;SDS011;40070;47.322;18.784;2023-08-31T00:58:43;4.96;;;2.03;;
48809;SDS011;40070;47.322;18.784;2023-08-31T01:02:59;3.12;;;1.75;;
48809;SDS011;40070;47.322;18.784;2023-08-31T01:07:24;3.21;;;1.65;;
48809;SDS011;40070;47.322;18.784;2023-08-31T01:09:27;3.73;;;1.84;;
48809;SDS011;40070;47.322;18.784;2023-08-31T01:11:41;5.40;;;2.23;;
48809;SDS011;40070;47.322;18.784;2023-08-31T01:13:48;5.16;;;1.94;;
48809;SDS011;40070;47.322;18.784;2023-08-31T01:15:46;3.92;;;2.04;;
48809;SDS011;40070;47.322;18.784;2023-08-31T01:17:48;5.14;;;1.94;;
48809;SDS011;40070;47.322;18.784;2023-08-31T01:20:00;3.89;;;1.84;;
48809;SDS011;40070;47.322;18.784;2023-08-31T01:22:18;5.38;;;2.32;;
48809;SDS011;40070;47.322;18.784;2023-08-31T01:24:26;3.78;;;1.74;;
48809;SDS011;40070;47.322;18.784;2023-08-31T01:26:28;3.39;;;1.63;;
48809;SDS011;40070;47.322;18.784;2023-08-31T01:28:30;3.22;;;1.54;;
48809;SDS011;40070;47.322;18.784;2023-08-31T01:30:31;3.39;;;1.73;;
48809;SDS011;40070;47.322;18.784;2023-08-31T01:32:36;3.90;;;2.02;;
48809;SDS011;40070;47.322;18.784;2023-08-31T01:34:37;2.77;;;1.44;;
48809;SDS011;40070;47.322;18.784;2023-08-31T01:36:53;5.10;;;1.92;;
48809;SDS011;40070;47.322;18.784;2023-08-31T01:39:01;3.89;;;1.73;;
48809;SDS011;40070;47.322;18.784;2023-08-31T01:41:16;4.33;;;2.21;;
48809;SDS011;40070;47.322;18.784;2023-08-31T01:43:17;4.23;;;1.73;;
48809;SDS011;40070;47.322;18.784;2023-08-31T01:45:20;3.60;;;1.81;;
48809;SDS011;40070;47.322;18.784;2023-08-31T01:47:23;5.01;;;1.82;;
48809;SDS011;40070;47.322;18.784;2023-08-31T01:49:24;3.21;;;1.63;;
48809;SDS011;40070;47.322;18.784;2023-08-31T01:51:24;2.95;;;1.63;;
48809;SDS011;40070;47.322;18.784;2023-08-31T01:53:25;4.29;;;1.93;;
48809;SDS011;40070;47.322;18.784;2023-08-31T01:55:26;4.19;;;1.93;;
48809;SDS011;40070;47.322;18.784;2023-08-31T01:57:27;3.32;;;1.73;;
48809;SDS011;40070;47.322;18.784;2023-08-31T01:59:28;3.07;;;1.64;;
48809;SDS011;40070;47.322;18.784;2023-08-31T02:01:32;3.24;;;1.74;;
48809;SDS011;40070;47.322;18.784;2023-08-31T02:03:30;3.15;;;1.83;;
48809;SDS011;40070;47.322;18.784;2023-08-31T02:05:32;2.91;;;1.64;;
48809;SDS011;40070;47.322;18.784;2023-08-31T02:07:33;4.34;;;2.13;;
48809;SDS011;40070;47.322;18.784;2023-08-31T02:09:34;3.99;;;1.84;;
48809;SDS011;40070;47.322;18.784;2023-08-31T02:11:35;5.21;;;1.93;;
48809;SDS011;40070;47.322;18.784;2023-08-31T02:13:36;3.64;;;1.74;;
48809;SDS011;40070;47.322;18.784;2023-08-31T02:15:38;4.67;;;1.64;;
48809;SDS011;40070;47.322;18.784;2023-08-31T02:17:39;3.78;;;1.54;;
48809;SDS011;40070;47.322;18.784;2023-08-31T02:19:40;3.95;;;1.64;;
48809;SDS011;40070;47.322;18.784;2023-08-31T02:21:41;3.61;;;1.74;;
48809;SDS011;40070;47.322;18.784;2023-08-31T02:23:42;3.34;;;1.74;;
48809;SDS011;40070;47.322;18.784;2023-08-31T02:25:44;4.97;;;1.83;;
48809;SDS011;40070;47.322;18.784;2023-08-31T02:27:45;3.23;;;1.83;;
48809;SDS011;40070;47.322;18.784;2023-08-31T02:29:46;6.63;;;1.83;;
48809;SDS011;40070;47.322;18.784;2023-08-31T02:31:48;3.26;;;1.74;;
48809;SDS011;40070;47.322;18.784;2023-08-31T02:33:49;3.37;;;1.55;;
48809;SDS011;40070;47.322;18.784;2023-08-31T02:35:50;3.91;;;1.84;;
48809;SDS011;40070;47.322;18.784;2023-08-31T02:37:51;3.91;;;1.84;;
48809;SDS011;40070;47.322;18.784;2023-08-31T02:39:52;3.62;;;1.74;;
48809;SDS011;40070;47.322;18.784;2023-08-31T02:41:53;4.25;;;2.03;;
48809;SDS011;40070;47.322;18.784;2023-08-31T02:43:54;3.69;;;1.93;;
48809;SDS011;40070;47.322;18.784;2023-08-31T02:46:01;3.69;;;1.64;;
48809;SDS011;40070;47.322;18.784;2023-08-31T02:47:55;3.50;;;1.64;;
48809;SDS011;40070;47.322;18.784;2023-08-31T02:49:56;3.31;;;1.63;;
48809;SDS011;40070;47.322;18.784;2023-08-31T02:51:57;3.14;;;1.83;;
48809;SDS011;40070;47.322;18.784;2023-08-31T02:53:58;4.50;;;1.73;;
48809;SDS011;40070;47.322;18.784;2023-08-31T02:55:59;3.81;;;1.92;;
48809;SDS011;40070;47.322;18.784;2023-08-31T02:58:01;8.33;;;1.72;;
48809;SDS011;40070;47.322;18.784;2023-08-31T03:00:02;4.23;;;1.92;;
48809;SDS011;40070;47.322;18.784;2023-08-31T03:02:03;4.05;;;2.01;;
48809;SDS011;40070;47.322;18.784;2023-08-31T03:04:04;4.73;;;2.11;;
48809;SDS011;40070;47.322;18.784;2023-08-31T03:06:07;3.26;;;2.01;;
48809;SDS011;40070;47.322;18.784;2023-08-31T03:08:05;3.18;;;1.72;;
48809;SDS011;40070;47.322;18.784;2023-08-31T03:10:07;3.41;;;1.81;;
48809;SDS011;40070;47.322;18.784;2023-08-31T03:12:07;3.70;;;1.91;;
48809;SDS011;40070;47.322;18.784;2023-08-31T03:14:08;3.99;;;2.02;;
48809;SDS011;40070;47.322;18.784;2023-08-31T03:16:09;3.69;;;1.62;;
48809;SDS011;40070;47.322;18.784;2023-08-31T03:18:10;3.90;;;1.82;;
48809;SDS011;40070;47.322;18.784;2023-08-31T03:20:12;2.88;;;1.54;;
48809;SDS011;40070;47.322;18.784;2023-08-31T03:22:13;4.20;;;2.41;;
48809;SDS011;40070;47.322;18.784;2023-08-31T03:24:14;3.05;;;1.54;;
48809;SDS011;40070;47.322;18.784;2023-08-31T03:26:15;4.00;;;2.02;;
48809;SDS011;40070;47.322;18.784;2023-08-31T03:28:16;3.58;;;1.83;;
48809;SDS011;40070;47.322;18.784;2023-08-31T03:30:17;2.70;;;1.35;;
48809;SDS011;40070;47.322;18.784;2023-08-31T03:32:18;3.30;;;1.73;;
48809;SDS011;40070;47.322;18.784;2023-08-31T03:34:19;3.84;;;2.02;;
48809;SDS011;40070;47.322;18.784;2023-08-31T03:36:20;4.29;;;2.12;;
48809;SDS011;40070;47.322;18.784;2023-08-31T03:38:21;3.77;;;2.03;;
48809;SDS011;40070;47.322;18.784;2023-08-31T03:40:22;4.89;;;2.22;;
48809;SDS011;40070;47.322;18.784;2023-08-31T03:42:23;3.48;;;2.02;;
48809;SDS011;40070;47.322;18.784;2023-08-31T03:44:24;5.30;;;2.02;;
48809;SDS011;40070;47.322;18.784;2023-08-31T03:46:25;4.98;;;2.01;;
48809;SDS011;40070;47.322;18.784;2023-08-31T03:48:26;5.48;;;2.58;;
48809;SDS011;40070;47.322;18.784;2023-08-31T03:50:27;4.01;;;1.91;;
48809;SDS011;40070;47.322;18.784;2023-08-31T03:52:28;3.27;;;1.82;;
48809;SDS011;40070;47.322;18.784;2023-08-31T03:54:29;7.03;;;2.10;;
48809;SDS011;40070;47.322;18.784;2023-08-31T03:56:30;3.85;;;1.91;;
48809;SDS011;40070;47.322;18.784;2023-08-31T03:58:31;3.61;;;2.11;;
48809;SDS011;40070;47.322;18.784;2023-08-31T04:00:32;3.44;;;2.01;;
48809;SDS011;40070;47.322;18.784;2023-08-31T04:02:33;3.45;;;1.92;;
48809;SDS011;40070;47.322;18.784;2023-08-31T04:04:34;6.66;;;2.96;;
48809;SDS011;40070;47.322;18.784;2023-08-31T04:06:35;4.01;;;2.00;;
48809;SDS011;40070;47.322;18.784;2023-08-31T04:08:36;5.09;;;1.90;;
48809;SDS011;40070;47.322;18.784;2023-08-31T04:10:37;3.38;;;1.99;;
48809;SDS011;40070;47.322;18.784;2023-08-31T04:12:38;5.07;;;2.18;;
48809;SDS011;40070;47.322;18.784;2023-08-31T04:14:39;3.36;;;1.61;;
48809;SDS011;40070;47.322;18.784;2023-08-31T04:16:40;3.54;;;1.89;;
48809;SDS011;40070;47.322;18.784;2023-08-31T04:18:41;3.28;;;1.70;;
48809;SDS011;40070;47.322;18.784;2023-08-31T04:20:49;3.34;;;1.89;;
48809;SDS011;40070;47.322;18.784;2023-08-31T04:22:43;3.77;;;1.98;;
48809;SDS011;40070;47.322;18.784;2023-08-31T04:24:44;4.14;;;2.16;;
48809;SDS011;40070;47.322;18.784;2023-08-31T04:26:46;4.58;;;2.17;;
48809;SDS011;40070;47.322;18.784;2023-08-31T04:28:47;3.17;;;2.08;;
48809;SDS011;40070;47.322;18.784;2023-08-31T04:30:47;3.84;;;2.07;;
48809;SDS011;40070;47.322;18.784;2023-08-31T04:32:48;5.70;;;1.79;;
48809;SDS011;40070;47.322;18.784;2023-08-31T04:34:49;6.25;;;1.99;;
48809;SDS011;40070;47.322;18.784;2023-08-31T04:36:53;3.22;;;1.81;;
48809;SDS011;40070;47.322;18.784;2023-08-31T04:38:54;3.74;;;1.90;;
48809;SDS011;40070;47.322;18.784;2023-08-31T04:40:57;3.49;;;1.91;;
48809;SDS011;40070;47.322;18.784;2023-08-31T04:42:56;6.12;;;1.90;;
48809;SDS011;40070;47.322;18.784;2023-08-31T04:44:57;3.15;;;1.81;;
48809;SDS011;40070;47.322;18.784;2023-08-31T04:46:58;3.48;;;1.90;;
48809;SDS011;40070;47.322;18.784;2023-08-31T04:48:59;3.41;;;1.90;;
48809;SDS011;40070;47.322;18.784;2023-08-31T04:51:00;3.23;;;1.81;;
48809;SDS011;40070;47.322;18.784;2023-08-31T04:53:01;4.76;;;2.19;;
48809;SDS011;40070;47.322;18.784;2023-08-31T04:55:02;7.23;;;2.28;;
48809;SDS011;40070;47.322;18.784;2023-08-31T04:57:03;4.91;;;2.09;;
48809;SDS011;40070;47.322;18.784;2023-08-31T04:59:04;3.92;;;2.00;;
48809;SDS011;40070;47.322;18.784;2023-08-31T05:01:05;3.86;;;1.82;;
48809;SDS011;40070;47.322;18.784;2023-08-31T05:03:06;3.51;;;1.91;;
48809;SDS011;40070;47.322;18.784;2023-08-31T05:05:07;3.78;;;1.72;;
48809;SDS011;40070;47.322;18.784;2023-08-31T05:07:08;4.34;;;2.21;;
48809;SDS011;40070;47.322;18.784;2023-08-31T05:09:09;3.66;;;1.83;;
48809;SDS011;40070;47.322;18.784;2023-08-31T05:11:10;4.80;;;2.60;;
48809;SDS011;40070;47.322;18.784;2023-08-31T05:13:11;4.02;;;1.93;;
48809;SDS011;40070;47.322;18.784;2023-08-31T05:15:12;3.43;;;1.93;;
48809;SDS011;40070;47.322;18.784;2023-08-31T05:17:13;4.58;;;2.03;;
48809;SDS011;40070;47.322;18.784;2023-08-31T05:19:14;3.16;;;1.93;;
48809;SDS011;40070;47.322;18.784;2023-08-31T05:21:16;3.25;;;1.64;;
48809;SDS011;40070;47.322;18.784;2023-08-31T05:23:17;3.16;;;1.83;;
48809;SDS011;40070;47.322;18.784;2023-08-31T05:25:18;4.83;;;2.41;;
48809;SDS011;40070;47.322;18.784;2023-08-31T05:27:20;7.28;;;4.53;;
48809;SDS011;40070;47.322;18.784;2023-08-31T05:29:21;3.59;;;1.83;;
48809;SDS011;40070;47.322;18.784;2023-08-31T05:31:22;4.57;;;2.80;;
48809;SDS011;40070;47.322;18.784;2023-08-31T05:33:23;3.82;;;2.33;;
48809;SDS011;40070;47.322;18.784;2023-08-31T05:35:24;3.65;;;2.04;;
48809;SDS011;40070;47.322;18.784;2023-08-31T05:37:25;4.22;;;2.05;;
48809;SDS011;40070;47.322;18.784;2023-08-31T05:39:26;3.67;;;1.65;;
48809;SDS011;40070;47.322;18.784;2023-08-31T05:41:39;4.29;;;2.53;;
48809;SDS011;40070;47.322;18.784;2023-08-31T05:43:38;3.30;;;1.85;;
48809;SDS011;40070;47.322;18.784;2023-08-31T05:45:39;4.45;;;1.94;;
48809;SDS011;40070;47.322;18.784;2023-08-31T05:47:40;4.95;;;2.15;;
48809;SDS011;40070;47.322;18.784;2023-08-31T05:49:41;3.50;;;1.85;;
48809;SDS011;40070;47.322;18.784;2023-08-31T05:51:42;3.68;;;1.85;;
48809;SDS011;40070;47.322;18.784;2023-08-31T05:53:43;4.33;;;1.85;;
48809;SDS011;40070;47.322;18.784;2023-08-31T05:55:44;4.25;;;2.05;;
48809;SDS011;40070;47.322;18.784;2023-08-31T05:57:50;3.34;;;1.76;;
48809;SDS011;40070;47.322;18.784;2023-08-31T05:59:51;3.87;;;2.14;;
48809;SDS011;40070;47.322;18.784;2023-08-31T06:01:52;3.79;;;1.95;;
48809;SDS011;40070;47.322;18.784;2023-08-31T06:03:54;4.06;;;2.24;;
48809;SDS011;40070;47.322;18.784;2023-08-31T06:05:54;4.62;;;2.44;;
48809;SDS011;40070;47.322;18.784;2023-08-31T06:08:12;3.81;;;2.25;;
48809;SDS011;40070;47.322;18.784;2023-08-31T06:10:03;4.46;;;1.86;;
48809;SDS011;40070;47.322;18.784;2023-08-31T06:12:22;4.48;;;2.35;;
48809;SDS011;40070;47.322;18.784;2023-08-31T06:14:20;3.77;;;1.87;;
48809;SDS011;40070;47.322;18.784;2023-08-31T06:16:21;4.96;;;2.06;;
48809;SDS011;40070;47.322;18.784;2023-08-31T06:18:22;4.87;;;2.16;;
48809;SDS011;40070;47.322;18.784;2023-08-31T06:20:23;3.32;;;1.87;;
48809;SDS011;40070;47.322;18.784;2023-08-31T06:22:24;3.69;;;2.06;;
48809;SDS011;40070;47.322;18.784;2023-08-31T06:24:25;3.57;;;1.86;;
48809;SDS011;40070;47.322;18.784;2023-08-31T06:26:27;5.53;;;1.97;;
48809;SDS011;40070;47.322;18.784;2023-08-31T06:28:28;4.35;;;1.87;;
48809;SDS011;40070;47.322;18.784;2023-08-31T06:30:30;4.15;;;2.06;;
48809;SDS011;40070;47.322;18.784;2023-08-31T06:32:44;3.42;;;1.87;;
48809;SDS011;40070;47.322;18.784;2023-08-31T06:34:38;4.07;;;1.97;;
48809;SDS011;40070;47.322;18.784;2023-08-31T06:36:40;3.87;;;1.77;;
48809;SDS011;40070;47.322;18.784;2023-08-31T06:38:41;4.97;;;1.87;;
48809;SDS011;40070;47.322;18.784;2023-08-31T06:40:42;3.69;;;1.87;;
48809;SDS011;40070;47.322;18.784;2023-08-31T06:42:43;3.34;;;1.87;;
48809;SDS011;40070;47.322;18.784;2023-08-31T06:44:44;3.44;;;1.68;;
48809;SDS011;40070;47.322;18.784;2023-08-31T06:46:45;5.46;;;2.17;;
48809;SDS011;40070;47.322;18.784;2023-08-31T06:48:46;6.07;;;1.97;;
48809;SDS011;40070;47.322;18.784;2023-08-31T06:50:47;3.09;;;1.58;;
48809;SDS011;40070;47.322;18.784;2023-08-31T06:52:48;3.18;;;1.48;;
48809;SDS011;40070;47.322;18.784;2023-08-31T06:54:49;3.28;;;1.58;;
48809;SDS011;40070;47.322;18.784;2023-08-31T06:56:50;3.08;;;1.48;;
48809;SDS011;40070;47.322;18.784;2023-08-31T06:58:51;3.17;;;1.48;;
48809;SDS011;40070;47.322;18.784;2023-08-31T07:00:52;3.17;;;1.68;;
48809;SDS011;40070;47.322;18.784;2023-08-31T07:02:53;3.54;;;1.68;;
48809;SDS011;40070;47.322;18.784;2023-08-31T07:04:55;3.34;;;1.58;;
48809;SDS011;40070;47.322;18.784;2023-08-31T07:06:56;3.34;;;1.77;;
48809;SDS011;40070;47.322;18.784;2023-08-31T07:08:56;4.09;;;1.58;;
48809;SDS011;40070;47.322;18.784;2023-08-31T07:10:58;3.55;;;1.28;;
48809;SDS011;40070;47.322;18.784;2023-08-31T07:12:59;3.64;;;1.68;;
48809;SDS011;40070;47.322;18.784;2023-08-31T07:14:59;2.99;;;1.38;;
48809;SDS011;40070;47.322;18.784;2023-08-31T07:17:00;3.38;;;1.68;;
48809;SDS011;40070;47.322;18.784;2023-08-31T07:19:01;3.21;;;1.58;;
48809;SDS011;40070;47.322;18.784;2023-08-31T07:21:03;2.74;;;1.29;;
48809;SDS011;40070;47.322;18.784;2023-08-31T07:23:06;4.48;;;1.29;;
48809;SDS011;40070;47.322;18.784;2023-08-31T07:25:07;2.56;;;1.29;;
48809;SDS011;40070;47.322;18.784;2023-08-31T07:27:08;3.14;;;1.29;;
48809;SDS011;40070;47.322;18.784;2023-08-31T07:29:09;2.95;;;1.29;;
48809;SDS011;40070;47.322;18.784;2023-08-31T07:31:12;3.07;;;1.39;;
48809;SDS011;40070;47.322;18.784;2023-08-31T07:33:11;3.63;;;1.49;;
48809;SDS011;40070;47.322;18.784;2023-08-31T07:35:12;2.68;;;1.19;;
48809;SDS011;40070;47.322;18.784;2023-08-31T07:37:13;3.16;;;1.49;;
48809;SDS011;40070;47.322;18.784;2023-08-31T07:39:14;3.06;;;1.19;;
48809;SDS011;40070;47.322;18.784;2023-08-31T07:41:15;2.97;;;1.49;;
48809;SDS011;40070;47.322;18.784;2023-08-31T07:43:16;2.89;;;1.39;;
48809;SDS011;40070;47.322;18.784;2023-08-31T07:45:17;2.71;;;1.19;;
48809;SDS011;40070;47.322;18.784;2023-08-31T07:47:18;3.10;;;1.39;;
48809;SDS011;40070;47.322;18.784;2023-08-31T07:49:19;3.67;;;1.19;;
48809;SDS011;40070;47.322;18.784;2023-08-31T07:51:20;2.79;;;1.39;;
48809;SDS011;40070;47.322;18.784;2023-08-31T07:53:21;3.56;;;1.39;;
48809;SDS011;40070;47.322;18.784;2023-08-31T07:55:24;3.19;;;1.19;;
48809;SDS011;40070;47.322;18.784;2023-08-31T07:57:23;2.52;;;1.10;;
48809;SDS011;40070;47.322;18.784;2023-08-31T07:59:24;2.61;;;1.09;;
48809;SDS011;40070;47.322;18.784;2023-08-31T08:01:26;2.90;;;1.39;;
48809;SDS011;40070;47.322;18.784;2023-08-31T08:03:27;2.61;;;1.19;;
48809;SDS011;40070;47.322;18.784;2023-08-31T08:05:29;2.23;;;1.10;;
48809;SDS011;40070;47.322;18.784;2023-08-31T08:07:30;3.10;;;1.29;;
48809;SDS011;40070;47.322;18.784;2023-08-31T08:09:31;3.00;;;1.49;;
48809;SDS011;40070;47.322;18.784;2023-08-31T08:11:34;2.51;;;1.09;;
48809;SDS011;40070;47.322;18.784;2023-08-31T08:13:33;2.52;;;1.20;;
48809;SDS011;40070;47.322;18.784;2023-08-31T08:15:34;2.53;;;1.10;;
48809;SDS011;40070;47.322;18.784;2023-08-31T08:17:35;2.50;;;1.09;;
48809;SDS011;40070;47.322;18.784;2023-08-31T08:19:37;2.82;;;1.30;;
48809;SDS011;40070;47.322;18.784;2023-08-31T08:21:38;2.23;;;1.10;;
48809;SDS011;40070;47.322;18.784;2023-08-31T08:23:40;2.53;;;1.10;;
48809;SDS011;40070;47.322;18.784;2023-08-31T08:25:40;2.63;;;1.20;;
48809;SDS011;40070;47.322;18.784;2023-08-31T08:27:41;2.63;;;1.20;;
48809;SDS011;40070;47.322;18.784;2023-08-31T08:29:43;3.80;;;1.10;;
48809;SDS011;40070;47.322;18.784;2023-08-31T08:31:44;4.69;;;1.20;;
48809;SDS011;40070;47.322;18.784;2023-08-31T08:33:45;2.35;;;1.10;;
48809;SDS011;40070;47.322;18.784;2023-08-31T08:35:46;2.84;;;1.10;;
48809;SDS011;40070;47.322;18.784;2023-08-31T08:37:47;2.74;;;1.00;;
48809;SDS011;40070;47.322;18.784;2023-08-31T08:39:48;2.95;;;1.00;;
48809;SDS011;40070;47.322;18.784;2023-08-31T08:41:52;2.07;;;0.90;;
48809;SDS011;40070;47.322;18.784;2023-08-31T08:43:56;3.06;;;1.00;;
48809;SDS011;40070;47.322;18.784;2023-08-31T08:46:01;2.56;;;1.10;;
48809;SDS011;40070;47.322;18.784;2023-08-31T08:48:01;2.76;;;1.00;;
48809;SDS011;40070;47.322;18.784;2023-08-31T08:50:03;3.35;;;1.10;;
48809;SDS011;40070;47.322;18.784;2023-08-31T08:52:03;2.26;;;0.90;;
48809;SDS011;40070;47.322;18.784;2023-08-31T08:54:04;2.36;;;1.20;;
48809;SDS011;40070;47.322;18.784;2023-08-31T08:56:08;3.34;;;1.00;;
48809;SDS011;40070;47.322;18.784;2023-08-31T08:58:07;3.64;;;1.00;;
48809;SDS011;40070;47.322;18.784;2023-08-31T09:00:09;3.25;;;1.20;;
48809;SDS011;40070;47.322;18.784;2023-08-31T09:02:10;2.07;;;1.00;;
48809;SDS011;40070;47.322;18.784;2023-08-31T09:04:10;2.17;;;1.00;;
48809;SDS011;40070;47.322;18.784;2023-08-31T09:06:12;2.76;;;0.90;;
48809;SDS011;40070;47.322;18.784;2023-08-31T09:08:31;2.47;;;0.80;;
48809;SDS011;40070;47.322;18.784;2023-08-31T09:10:42;2.46;;;1.10;;
48809;SDS011;40070;47.322;18.784;2023-08-31T09:12:39;4.33;;;1.00;;
48809;SDS011;40070;47.322;18.784;2023-08-31T09:14:57;2.26;;;0.90;;
48809;SDS011;40070;47.322;18.784;2023-08-31T09:16:56;2.46;;;0.90;;
48809;SDS011;40070;47.322;18.784;2023-08-31T09:18:58;2.45;;;1.00;;
48809;SDS011;40070;47.322;18.784;2023-08-31T09:20:59;2.55;;;1.30;;
48809;SDS011;40070;47.322;18.784;2023-08-31T09:23:00;3.14;;;1.20;;
48809;SDS011;40070;47.322;18.784;2023-08-31T09:25:10;2.85;;;1.10;;
48809;SDS011;40070;47.322;18.784;2023-08-31T09:27:15;2.36;;;1.10;;
48809;SDS011;40070;47.322;18.784;2023-08-31T09:29:16;1.57;;;0.80;;
48809;SDS011;40070;47.322;18.784;2023-08-31T09:31:21;2.86;;;1.30;;
48809;SDS011;40070;47.322;18.784;2023-08-31T09:33:24;1.97;;;0.90;;
48809;SDS011;40070;47.322;18.784;2023-08-31T09:35:25;2.07;;;0.90;;
48809;SDS011;40070;47.322;18.784;2023-08-31T09:37:26;3.06;;;1.20;;
48809;SDS011;40070;47.322;18.784;2023-08-31T09:39:29;2.36;;;0.90;;
48809;SDS011;40070;47.322;18.784;2023-08-31T09:41:52;2.36;;;0.90;;
48809;SDS011;40070;47.322;18.784;2023-08-31T09:43:39;2.57;;;1.10;;
48809;SDS011;40070;47.322;18.784;2023-08-31T09:45:40;2.57;;;0.90;;
48809;SDS011;40070;47.322;18.784;2023-08-31T09:47:41;3.16;;;1.20;;
48809;SDS011;40070;47.322;18.784;2023-08-31T09:49:46;3.76;;;1.00;;
48809;SDS011;40070;47.322;18.784;2023-08-31T09:51:48;10.08;;;1.10;;
48809;SDS011;40070;47.322;18.784;2023-08-31T09:53:48;2.28;;;0.90;;
48809;SDS011;40070;47.322;18.784;2023-08-31T09:55:50;2.08;;;0.80;;
48809;SDS011;40070;47.322;18.784;2023-08-31T09:57:52;3.07;;;1.20;;
48809;SDS011;40070;47.322;18.784;2023-08-31T09:59:53;2.97;;;0.90;;
48809;SDS011;40070;47.322;18.784;2023-08-31T10:01:57;3.36;;;1.30;;
48809;SDS011;40070;47.322;18.784;2023-08-31T10:03:56;2.77;;;0.90;;
48809;SDS011;40070;47.322;18.784;2023-08-31T10:05:58;2.27;;;0.90;;
48809;SDS011;40070;47.322;18.784;2023-08-31T10:07:59;2.67;;;0.90;;
48809;SDS011;40070;47.322;18.784;2023-08-31T10:10:01;2.47;;;1.00;;
48809;SDS011;40070;47.322;18.784;2023-08-31T10:12:03;1.88;;;0.80;;
48809;SDS011;40070;47.322;18.784;2023-08-31T10:14:03;2.08;;;0.80;;
48809;SDS011;40070;47.322;18.784;2023-08-31T10:16:06;3.07;;;1.00;;
48809;SDS011;40070;47.322;18.784;2023-08-31T10:18:08;2.87;;;1.00;;
48809;SDS011;40070;47.322;18.784;2023-08-31T10:20:10;1.98;;;0.80;;
48809;SDS011;40070;47.322;18.784;2023-08-31T10:22:11;4.05;;;1.20;;
48809;SDS011;40070;47.322;18.784;2023-08-31T10:24:16;2.08;;;0.90;;
48809;SDS011;40070;47.322;18.784;2023-08-31T10:26:30;3.67;;;1.00;;
48809;SDS011;40070;47.322;18.784;2023-08-31T10:28:30;2.18;;;0.90;;
48809;SDS011;40070;47.322;18.784;2023-08-31T10:30:43;2.18;;;0.90;;
48809;SDS011;40070;47.322;18.784;2023-08-31T10:35:07;2.77;;;0.90;;
48809;SDS011;40070;47.322;18.784;2023-08-31T10:37:21;2.18;;;0.90;;
48809;SDS011;40070;47.322;18.784;2023-08-31T10:39:17;2.58;;;0.90;;
48809;SDS011;40070;47.322;18.784;2023-08-31T10:41:33;2.48;;;0.80;;
48809;SDS011;40070;47.322;18.784;2023-08-31T10:43:47;1.98;;;0.80;;
48809;SDS011;40070;47.322;18.784;2023-08-31T10:45:51;2.28;;;0.90;;
48809;SDS011;40070;47.322;18.784;2023-08-31T10:48:04;4.05;;;0.90;;
48809;SDS011;40070;47.322;18.784;2023-08-31T10:50:21;2.38;;;0.80;;
48809;SDS011;40070;47.322;18.784;2023-08-31T10:52:16;2.67;;;0.90;;
48809;SDS011;40070;47.322;18.784;2023-08-31T10:56:21;2.08;;;0.80;;
48809;SDS011;40070;47.322;18.784;2023-08-31T10:58:22;1.78;;;0.90;;
48809;SDS011;40070;47.322;18.784;2023-08-31T11:00:45;2.08;;;0.70;;
48809;SDS011;40070;47.322;18.784;2023-08-31T11:02:43;2.57;;;0.80;;
48809;SDS011;40070;47.322;18.784;2023-08-31T11:04:53;1.98;;;0.80;;
48809;SDS011;40070;47.322;18.784;2023-08-31T11:06:41;2.77;;;1.00;;
48809;SDS011;40070;47.322;18.784;2023-08-31T11:08:42;1.88;;;0.80;;
48809;SDS011;40070;47.322;18.784;2023-08-31T11:10:47;2.88;;;0.80;;
48809;SDS011;40070;47.322;18.784;2023-08-31T11:12:49;3.87;;;1.00;;
48809;SDS011;40070;47.322;18.784;2023-08-31T11:14:49;2.68;;;1.10;;
48809;SDS011;40070;47.322;18.784;2023-08-31T11:16:50;2.88;;;1.00;;
48809;SDS011;40070;47.322;18.784;2023-08-31T11:18:52;2.38;;;1.00;;
48809;SDS011;40070;47.322;18.784;2023-08-31T11:20:54;3.07;;;1.10;;
48809;SDS011;40070;47.322;18.784;2023-08-31T11:22:55;3.17;;;1.10;;
48809;SDS011;40070;47.322;18.784;2023-08-31T11:24:56;2.78;;;1.00;;
48809;SDS011;40070;47.322;18.784;2023-08-31T11:26:57;2.28;;;0.90;;
48809;SDS011;40070;47.322;18.784;2023-08-31T11:29:06;3.86;;;0.90;;
48809;SDS011;40070;47.322;18.784;2023-08-31T11:31:05;2.48;;;1.00;;
48809;SDS011;40070;47.322;18.784;2023-08-31T11:33:06;1.99;;;0.80;;
48809;SDS011;40070;47.322;18.784;2023-08-31T11:35:11;2.48;;;1.00;;
48809;SDS011;40070;47.322;18.784;2023-08-31T11:37:15;2.19;;;1.00;;
48809;SDS011;40070;47.322;18.784;2023-08-31T11:39:17;2.09;;;0.90;;
48809;SDS011;40070;47.322;18.784;2023-08-31T11:41:18;2.39;;;1.00;;
48809;SDS011;40070;47.322;18.784;2023-08-31T11:43:19;2.49;;;1.00;;
48809;SDS011;40070;47.322;18.784;2023-08-31T11:45:23;1.89;;;0.90;;
48809;SDS011;40070;47.322;18.784;2023-08-31T11:47:24;2.78;;;0.80;;
48809;SDS011;40070;47.322;18.784;2023-08-31T11:49:25;2.78;;;1.10;;
48809;SDS011;40070;47.322;18.784;2023-08-31T11:51:26;2.58;;;0.90;;
48809;SDS011;40070;47.322;18.784;2023-08-31T11:53:27;2.88;;;1.00;;
48809;SDS011;40070;47.322;18.784;2023-08-31T11:55:28;2.39;;;1.00;;
48809;SDS011;40070;47.322;18.784;2023-08-31T11:57:30;2.88;;;1.00;;
48809;SDS011;40070;47.322;18.784;2023-08-31T11:59:30;2.19;;;1.10;;
48809;SDS011;40070;47.322;18.784;2023-08-31T12:01:31;2.09;;;1.00;;
48809;SDS011;40070;47.322;18.784;2023-08-31T12:03:41;2.78;;;0.90;;
48809;SDS011;40070;47.322;18.784;2023-08-31T12:05:46;1.69;;;0.70;;
48809;SDS011;40070;47.322;18.784;2023-08-31T12:07:41;2.09;;;0.90;;
48809;SDS011;40070;47.322;18.784;2023-08-31T12:09:37;2.79;;;1.00;;
48809;SDS011;40070;47.322;18.784;2023-08-31T12:11:38;6.77;;;1.50;;